createdAt,value
2023-10-31T00:00:35.782Z,12.10
2023-10-31T00:03:02.527Z,12.10
2023-10-31T00:05:29.334Z,12.10
2023-10-31T00:07:56.078Z,12.20
2023-10-31T00:10:22.814Z,12.10
2023-10-31T00:12:49.648Z,12.10
2023-10-31T00:15:16.408Z,12.10
2023-10-31T00:17:43.213Z,12.10
2023-10-31T00:20:10.158Z,12.10
2023-10-31T00:22:36.924Z,12.10
2023-10-31T00:25:03.954Z,12.10
2023-10-31T00:27:30.764Z,12.10
2023-10-31T00:29:57.558Z,12.20
2023-10-31T00:32:26.764Z,12.10
2023-10-31T00:34:53.674Z,12.10
2023-10-31T00:37:20.404Z,12.10
2023-10-31T00:39:47.068Z,12.20
2023-10-31T00:42:13.885Z,12.10
2023-10-31T00:44:40.592Z,12.10
2023-10-31T00:47:07.325Z,12.20
2023-10-31T00:49:34.071Z,12.10
2023-10-31T00:52:00.836Z,12.10
2023-10-31T00:54:27.789Z,12.10
2023-10-31T00:56:54.621Z,12.10
2023-10-31T00:59:21.306Z,12.10
2023-10-31T01:01:48.032Z,12.10
2023-10-31T01:04:14.737Z,12.10
2023-10-31T01:06:44.904Z,12.10
2023-10-31T01:09:12.491Z,12.10
2023-10-31T01:11:39.396Z,12.10
2023-10-31T01:14:06.179Z,12.10
2023-10-31T01:16:33.008Z,12.10
2023-10-31T01:18:59.655Z,12.00
2023-10-31T01:21:26.449Z,12.00
2023-10-31T01:23:53.211Z,12.00
2023-10-31T01:26:19.933Z,12.00
2023-10-31T01:28:46.670Z,12.00
2023-10-31T01:31:13.359Z,12.00
2023-10-31T01:33:40.160Z,11.90
2023-10-31T01:36:07.441Z,12.00
2023-10-31T01:38:34.263Z,12.00
2023-10-31T01:41:00.927Z,12.00
2023-10-31T01:43:35.786Z,12.00
2023-10-31T01:46:02.672Z,12.00
2023-10-31T01:48:31.998Z,12.00
2023-10-31T01:51:00.390Z,12.00
2023-10-31T01:53:29.719Z,12.00
2023-10-31T01:55:58.066Z,12.00
2023-10-31T01:58:30.010Z,12.00
2023-10-31T02:00:57.253Z,12.10
2023-10-31T02:03:24.039Z,11.90
2023-10-31T02:05:52.539Z,11.80
2023-10-31T02:08:19.258Z,11.60
2023-10-31T02:10:45.977Z,11.40
2023-10-31T02:13:17.872Z,11.30
2023-10-31T02:15:45.460Z,11.30
2023-10-31T02:18:12.202Z,11.30
2023-10-31T02:20:39.045Z,11.30
2023-10-31T02:23:05.897Z,11.10
2023-10-31T02:25:32.756Z,11.10
2023-10-31T02:28:00.143Z,11.00
2023-10-31T02:30:27.644Z,11.00
2023-10-31T02:32:55.025Z,10.90
2023-10-31T02:35:21.938Z,10.90
2023-10-31T02:37:49.291Z,10.90
2023-10-31T02:40:16.117Z,10.90
2023-10-31T02:42:42.955Z,10.80
2023-10-31T02:45:09.870Z,10.80
2023-10-31T02:47:36.804Z,10.80
2023-10-31T02:50:03.668Z,10.70
2023-10-31T02:52:30.475Z,10.60
2023-10-31T02:54:57.394Z,10.70
2023-10-31T02:57:24.130Z,10.70
2023-10-31T02:59:50.805Z,10.60
2023-10-31T03:02:17.519Z,10.60
2023-10-31T03:04:44.280Z,10.60
2023-10-31T03:07:10.964Z,10.60
2023-10-31T03:09:37.635Z,10.60
2023-10-31T03:12:04.627Z,10.60
2023-10-31T03:14:31.554Z,10.50
2023-10-31T03:16:58.329Z,10.50
2023-10-31T03:19:25.095Z,10.50
2023-10-31T03:21:51.789Z,10.40
2023-10-31T03:24:18.461Z,10.50
2023-10-31T03:26:45.194Z,10.40
2023-10-31T03:29:11.881Z,10.40
2023-10-31T03:31:38.661Z,10.40
2023-10-31T03:34:05.399Z,10.40
2023-10-31T03:36:32.120Z,10.30
2023-10-31T03:38:58.832Z,10.30
2023-10-31T03:41:25.755Z,10.20
2023-10-31T03:43:52.520Z,10.20
2023-10-31T03:46:19.385Z,10.20
2023-10-31T03:48:46.107Z,10.20
2023-10-31T03:51:12.802Z,10.10
2023-10-31T03:53:39.512Z,10.20
2023-10-31T03:56:06.606Z,10.20
2023-10-31T03:58:33.322Z,10.20
2023-10-31T04:01:00.096Z,10.30
2023-10-31T04:03:26.942Z,10.20
2023-10-31T04:05:53.678Z,10.20
2023-10-31T04:08:20.483Z,10.10
2023-10-31T04:10:47.327Z,10.20
2023-10-31T04:13:14.048Z,10.20
2023-10-31T04:15:40.760Z,10.20
2023-10-31T04:18:07.472Z,10.20
2023-10-31T04:20:34.156Z,10.20
2023-10-31T04:23:00.978Z,10.20
2023-10-31T04:25:30.062Z,10.20
2023-10-31T04:27:56.939Z,10.30
2023-10-31T04:30:23.737Z,10.20
2023-10-31T04:32:50.561Z,10.30
2023-10-31T04:35:17.479Z,10.30
2023-10-31T04:37:44.212Z,10.30
2023-10-31T04:40:11.649Z,10.20
2023-10-31T04:42:40.201Z,10.30
2023-10-31T04:45:07.824Z,10.70
2023-10-31T04:47:34.806Z,10.30
2023-10-31T04:50:01.715Z,10.30
2023-10-31T04:52:28.514Z,10.30
2023-10-31T04:54:55.292Z,10.20
2023-10-31T04:57:22.015Z,10.20
2023-10-31T04:59:48.787Z,10.20
2023-10-31T05:02:15.637Z,10.30
2023-10-31T05:04:42.629Z,10.20
2023-10-31T05:07:09.631Z,10.30
2023-10-31T05:09:36.859Z,10.40
2023-10-31T05:12:04.005Z,10.30
2023-10-31T05:14:30.735Z,10.20
2023-10-31T05:16:57.556Z,10.20
2023-10-31T05:19:24.312Z,10.30
2023-10-31T05:21:51.075Z,10.30
2023-10-31T05:24:17.722Z,10.30
2023-10-31T05:26:44.602Z,10.20
2023-10-31T05:29:12.394Z,10.10
2023-10-31T05:31:39.192Z,10.10
2023-10-31T05:34:06.010Z,10.10
2023-10-31T05:36:32.847Z,10.10
2023-10-31T05:38:59.662Z,10.10
2023-10-31T05:41:26.504Z,10.20
2023-10-31T05:43:53.486Z,10.10
2023-10-31T05:46:20.330Z,10.20
2023-10-31T05:48:48.119Z,10.10
2023-10-31T05:51:16.257Z,10.10
2023-10-31T05:53:45.434Z,10.10
2023-10-31T05:56:13.998Z,10.10
2023-10-31T05:58:42.075Z,10.10
2023-10-31T06:01:09.270Z,10.20
2023-10-31T06:03:36.243Z,10.20
2023-10-31T06:06:03.148Z,10.20
2023-10-31T06:08:30.131Z,10.10
2023-10-31T06:10:57.758Z,10.10
2023-10-31T06:13:27.408Z,10.10
2023-10-31T06:15:59.228Z,10.20
2023-10-31T06:18:28.396Z,10.10
2023-10-31T06:20:55.094Z,10.10
2023-10-31T06:23:21.857Z,10.00
2023-10-31T06:25:48.934Z,10.00
2023-10-31T06:28:15.930Z,10.00
2023-10-31T06:30:42.706Z,10.00
2023-10-31T06:33:11.429Z,10.00
2023-10-31T06:35:38.550Z,10.00
2023-10-31T06:38:05.322Z,10.00
2023-10-31T06:40:32.136Z,9.90
2023-10-31T06:42:58.846Z,9.90
2023-10-31T06:45:25.607Z,9.90
2023-10-31T06:47:52.343Z,9.90
2023-10-31T06:50:20.740Z,9.90
2023-10-31T06:52:47.922Z,9.90
2023-10-31T06:55:14.972Z,9.80
2023-10-31T06:57:41.636Z,9.80
2023-10-31T07:00:12.628Z,9.90
2023-10-31T07:02:39.496Z,9.80
2023-10-31T07:05:06.822Z,9.80
2023-10-31T07:07:33.596Z,9.80
2023-10-31T07:10:00.394Z,9.80
2023-10-31T07:12:27.375Z,9.80
2023-10-31T07:14:54.179Z,9.80
2023-10-31T07:17:21.475Z,9.80
2023-10-31T07:19:48.254Z,9.80
2023-10-31T07:22:15.048Z,9.80
2023-10-31T07:24:41.896Z,9.80
2023-10-31T07:27:08.604Z,9.90
2023-10-31T07:29:35.464Z,9.90
2023-10-31T07:32:02.428Z,9.90
2023-10-31T07:34:30.489Z,9.90
2023-10-31T07:36:57.880Z,9.90
2023-10-31T07:39:24.550Z,10.00
2023-10-31T07:41:51.233Z,10.00
2023-10-31T07:44:18.339Z,10.00
2023-10-31T07:46:45.225Z,10.00
2023-10-31T07:49:11.873Z,10.00
2023-10-31T07:51:38.492Z,10.10
2023-10-31T07:54:05.322Z,10.00
2023-10-31T07:56:33.953Z,10.10
2023-10-31T07:59:00.783Z,10.20
2023-10-31T08:01:29.029Z,10.20
2023-10-31T08:03:56.274Z,10.10
2023-10-31T08:06:23.084Z,10.20
2023-10-31T08:08:49.822Z,10.30
2023-10-31T08:11:16.775Z,10.30
2023-10-31T08:13:43.581Z,10.30
2023-10-31T08:16:10.397Z,10.40
2023-10-31T08:18:37.275Z,10.30
2023-10-31T08:21:07.139Z,10.40
2023-10-31T08:23:34.175Z,10.40
2023-10-31T08:26:00.971Z,10.40
2023-10-31T08:28:27.934Z,10.50
2023-10-31T08:30:54.656Z,10.50
2023-10-31T08:33:21.346Z,10.50
2023-10-31T08:35:48.829Z,10.70
2023-10-31T08:38:24.105Z,10.70
2023-10-31T08:40:56.661Z,10.80
2023-10-31T08:43:23.378Z,10.80
2023-10-31T08:45:50.116Z,10.90
2023-10-31T08:48:17.027Z,10.90
2023-10-31T08:50:43.810Z,11.00
2023-10-31T08:53:11.275Z,11.20
2023-10-31T08:55:38.017Z,11.50
2023-10-31T08:58:04.721Z,11.70
2023-10-31T09:00:31.480Z,11.70
2023-10-31T09:02:58.480Z,11.80
2023-10-31T09:05:25.213Z,12.00
2023-10-31T09:07:51.925Z,12.10
2023-10-31T09:10:19.044Z,12.20
2023-10-31T09:12:47.538Z,12.30
2023-10-31T09:15:14.781Z,12.30
2023-10-31T09:17:41.510Z,12.40
2023-10-31T09:20:09.557Z,12.30
2023-10-31T09:22:36.289Z,12.40
2023-10-31T09:25:03.707Z,12.60
2023-10-31T09:27:30.533Z,13.00
2023-10-31T09:29:57.274Z,13.20
2023-10-31T09:32:24.110Z,13.30
2023-10-31T09:34:50.918Z,13.70
2023-10-31T09:37:17.993Z,14.10
2023-10-31T09:39:44.674Z,14.20
2023-10-31T09:42:11.463Z,13.80
2023-10-31T09:44:38.482Z,13.80
2023-10-31T09:47:07.108Z,13.70
2023-10-31T09:49:34.812Z,13.60
2023-10-31T09:52:02.161Z,13.70
2023-10-31T09:54:29.605Z,13.80
2023-10-31T09:56:56.387Z,13.60
2023-10-31T09:59:23.139Z,13.70
2023-10-31T10:01:49.907Z,13.90
2023-10-31T10:04:19.031Z,13.90
2023-10-31T10:07:17.046Z,13.90
2023-10-31T10:09:45.264Z,13.80
2023-10-31T10:12:16.506Z,13.70
2023-10-31T10:14:45.593Z,13.70
2023-10-31T10:17:25.068Z,13.60
2023-10-31T10:20:09.123Z,13.30
2023-10-31T10:22:45.923Z,13.10
2023-10-31T10:25:19.348Z,13.00
2023-10-31T10:27:46.958Z,12.90
2023-10-31T10:30:15.697Z,12.70
2023-10-31T10:32:42.814Z,12.60
2023-10-31T10:35:10.641Z,12.50
2023-10-31T10:37:41.392Z,12.50
2023-10-31T10:40:11.317Z,12.40
2023-10-31T10:42:49.677Z,12.30
2023-10-31T10:45:18.949Z,12.40
2023-10-31T10:47:50.379Z,12.20
2023-10-31T10:50:20.966Z,12.10
2023-10-31T10:53:14.904Z,12.20
2023-10-31T10:55:47.734Z,12.20
2023-10-31T10:58:19.873Z,12.10
2023-10-31T11:00:47.304Z,12.10
2023-10-31T11:03:15.725Z,12.20
2023-10-31T11:05:43.044Z,12.20
2023-10-31T11:08:10.165Z,12.10
2023-10-31T11:10:37.311Z,12.10
2023-10-31T11:13:04.088Z,12.10
2023-10-31T11:15:31.386Z,12.10
2023-10-31T11:17:58.833Z,12.10
2023-10-31T11:20:26.630Z,12.10
2023-10-31T11:23:00.919Z,12.00
2023-10-31T11:25:32.318Z,12.00
2023-10-31T11:28:16.737Z,12.00
2023-10-31T11:30:46.602Z,12.00
2023-10-31T11:33:20.980Z,12.00
2023-10-31T11:36:01.277Z,12.00
2023-10-31T11:38:37.288Z,12.10
2023-10-31T11:41:05.795Z,12.10
2023-10-31T11:43:53.474Z,12.10
2023-10-31T11:46:26.806Z,12.10
2023-10-31T11:48:57.139Z,12.10
2023-10-31T11:51:24.073Z,12.10
2023-10-31T11:53:51.034Z,12.10
2023-10-31T11:56:18.064Z,12.10
2023-10-31T11:58:44.847Z,12.00
2023-10-31T12:01:12.043Z,12.00
2023-10-31T12:03:43.998Z,12.00
2023-10-31T12:06:11.398Z,11.90
2023-10-31T12:08:42.862Z,11.90
2023-10-31T12:11:15.027Z,11.80
2023-10-31T12:13:43.769Z,11.80
2023-10-31T12:16:12.197Z,11.70
2023-10-31T12:18:42.391Z,11.70
2023-10-31T12:21:10.094Z,11.80
2023-10-31T12:23:36.991Z,11.60
2023-10-31T12:26:03.995Z,11.70
2023-10-31T12:28:30.743Z,11.70
2023-10-31T12:30:59.113Z,11.80
2023-10-31T12:33:29.171Z,11.90
2023-10-31T12:36:03.522Z,12.10
2023-10-31T12:38:30.757Z,12.20
2023-10-31T12:40:58.849Z,12.40
2023-10-31T12:43:26.614Z,12.50
2023-10-31T12:45:53.876Z,12.70
2023-10-31T12:48:26.568Z,12.80
2023-10-31T12:51:08.635Z,12.80
2023-10-31T12:53:35.997Z,12.90
2023-10-31T12:56:03.924Z,13.10
2023-10-31T12:58:30.775Z,12.90
2023-10-31T13:00:57.620Z,12.70
2023-10-31T13:03:24.525Z,12.60
2023-10-31T13:05:51.993Z,12.60
2023-10-31T13:08:18.818Z,12.80
2023-10-31T13:10:45.645Z,12.40
2023-10-31T13:13:13.484Z,12.30
2023-10-31T13:15:40.419Z,12.30
2023-10-31T13:18:07.200Z,12.30
2023-10-31T13:20:34.009Z,12.10
2023-10-31T13:23:03.652Z,12.20
2023-10-31T13:25:32.475Z,12.10
2023-10-31T13:27:59.416Z,12.10
2023-10-31T13:30:26.650Z,12.10
2023-10-31T13:32:54.183Z,12.10
2023-10-31T13:35:21.252Z,12.10
2023-10-31T13:37:48.112Z,12.10
2023-10-31T13:40:15.107Z,12.00
2023-10-31T13:42:41.915Z,12.10
2023-10-31T13:45:09.082Z,12.00
2023-10-31T13:47:36.187Z,12.00
2023-10-31T13:50:03.468Z,12.00
2023-10-31T13:52:30.433Z,12.00
2023-10-31T13:54:57.149Z,11.90
2023-10-31T13:57:23.834Z,11.90
2023-10-31T13:59:52.213Z,11.80
2023-10-31T14:02:19.456Z,11.90
2023-10-31T14:04:46.614Z,11.80
2023-10-31T14:07:22.878Z,11.80
2023-10-31T14:09:49.715Z,11.80
2023-10-31T14:12:16.879Z,11.90
2023-10-31T14:14:43.594Z,12.00
2023-10-31T14:17:10.478Z,12.00
2023-10-31T14:19:37.181Z,12.10
2023-10-31T14:22:03.910Z,12.20
2023-10-31T14:24:30.639Z,12.20
2023-10-31T14:26:57.481Z,12.20
2023-10-31T14:29:24.227Z,12.00
2023-10-31T14:31:51.224Z,12.00
2023-10-31T14:34:18.376Z,12.00
2023-10-31T14:36:45.081Z,12.00
2023-10-31T14:39:14.039Z,12.00
2023-10-31T14:41:41.151Z,12.00
2023-10-31T14:44:09.388Z,12.00
2023-10-31T14:46:36.135Z,12.00
2023-10-31T14:49:03.943Z,12.00
2023-10-31T14:51:30.744Z,11.90
2023-10-31T14:53:58.937Z,11.90
2023-10-31T14:56:27.585Z,11.90
2023-10-31T14:58:54.389Z,11.80
2023-10-31T15:01:21.130Z,11.80
2023-10-31T15:03:48.045Z,11.70
2023-10-31T15:06:16.988Z,11.70
2023-10-31T15:08:43.812Z,11.60
2023-10-31T15:11:10.564Z,11.60
2023-10-31T15:13:37.496Z,11.60
2023-10-31T15:16:04.641Z,11.60
2023-10-31T15:18:31.417Z,11.50
2023-10-31T15:20:58.585Z,11.40
2023-10-31T15:23:27.266Z,11.40
2023-10-31T15:25:58.381Z,11.30
2023-10-31T15:28:26.378Z,11.30
2023-10-31T15:30:53.338Z,11.20
2023-10-31T15:33:20.215Z,11.20
2023-10-31T15:35:48.887Z,11.20
2023-10-31T15:38:16.251Z,11.20
2023-10-31T15:40:43.060Z,11.10
2023-10-31T15:43:09.827Z,11.10
2023-10-31T15:45:41.519Z,11.00
2023-10-31T15:48:12.003Z,11.00
2023-10-31T15:50:40.382Z,11.10
2023-10-31T15:53:07.185Z,11.10
2023-10-31T15:55:33.869Z,11.10
2023-10-31T15:58:00.594Z,11.10
2023-10-31T16:00:28.397Z,11.00
2023-10-31T16:02:55.276Z,11.00
2023-10-31T16:05:23.107Z,10.90
2023-10-31T16:07:49.955Z,10.90
2023-10-31T16:10:16.780Z,10.90
2023-10-31T16:12:43.538Z,10.90
2023-10-31T16:15:10.507Z,10.80
2023-10-31T16:17:37.317Z,10.80
2023-10-31T16:20:04.706Z,10.80
2023-10-31T16:22:32.381Z,10.80
2023-10-31T16:24:59.065Z,10.80
2023-10-31T16:27:25.740Z,10.80
2023-10-31T16:29:52.497Z,10.80
2023-10-31T16:32:19.249Z,10.70
2023-10-31T16:34:47.876Z,10.70
2023-10-31T16:37:14.641Z,10.70
2023-10-31T16:39:41.358Z,10.70
2023-10-31T16:42:08.069Z,10.60
2023-10-31T16:44:34.868Z,10.60
2023-10-31T16:47:01.896Z,10.80
2023-10-31T16:49:28.660Z,10.70
2023-10-31T16:51:55.452Z,10.70
2023-10-31T16:54:22.144Z,10.70
2023-10-31T16:56:48.838Z,10.70
2023-10-31T16:59:15.670Z,10.70
2023-10-31T17:01:42.518Z,10.70
2023-10-31T17:04:09.606Z,10.70
2023-10-31T17:06:36.433Z,10.70
2023-10-31T17:09:03.355Z,10.70
2023-10-31T17:11:30.153Z,10.70
2023-10-31T17:13:57.134Z,10.70
2023-10-31T17:16:23.970Z,10.80
2023-10-31T17:18:50.984Z,10.80
2023-10-31T17:21:17.660Z,10.80
2023-10-31T17:23:46.068Z,10.70
2023-10-31T17:26:13.013Z,10.70
2023-10-31T17:28:40.466Z,10.70
2023-10-31T17:31:08.663Z,10.70
2023-10-31T17:33:35.684Z,10.70
2023-10-31T17:36:02.464Z,10.70
2023-10-31T17:38:29.173Z,10.80
2023-10-31T17:40:57.550Z,10.80
2023-10-31T17:43:24.296Z,10.80
2023-10-31T17:45:51.069Z,10.80
2023-10-31T17:48:17.894Z,10.80
2023-10-31T17:50:46.622Z,10.90
2023-10-31T17:53:13.611Z,11.10
2023-10-31T17:55:42.161Z,10.80
2023-10-31T17:58:09.471Z,10.70
2023-10-31T18:00:36.162Z,10.70
2023-10-31T18:03:03.062Z,10.70
2023-10-31T18:05:29.872Z,10.60
2023-10-31T18:07:56.873Z,10.60
2023-10-31T18:10:23.571Z,10.60
2023-10-31T18:12:52.353Z,10.60
2023-10-31T18:15:20.351Z,10.60
2023-10-31T18:17:47.192Z,10.60
2023-10-31T18:20:14.342Z,10.60
2023-10-31T18:22:41.094Z,10.60
2023-10-31T18:25:08.186Z,10.60
2023-10-31T18:27:34.887Z,10.60
2023-10-31T18:30:01.936Z,10.60
2023-10-31T18:32:28.780Z,10.60
2023-10-31T18:34:55.522Z,10.60
2023-10-31T18:37:22.216Z,10.60
2023-10-31T18:39:48.923Z,10.60
2023-10-31T18:42:15.649Z,10.60
2023-10-31T18:44:49.670Z,10.70
2023-10-31T18:47:23.729Z,10.70
2023-10-31T18:49:50.679Z,10.70
2023-10-31T18:52:17.758Z,10.70
2023-10-31T18:54:44.556Z,10.80
2023-10-31T18:57:11.307Z,10.80
2023-10-31T18:59:38.135Z,10.70
2023-10-31T19:02:04.923Z,10.70
2023-10-31T19:04:31.712Z,10.60
2023-10-31T19:06:59.060Z,10.60
2023-10-31T19:09:25.906Z,10.60
2023-10-31T19:11:52.627Z,10.70
2023-10-31T19:14:19.381Z,10.60
2023-10-31T19:16:46.070Z,10.60
2023-10-31T19:19:12.797Z,10.60
2023-10-31T19:21:39.580Z,10.50
2023-10-31T19:24:06.563Z,10.50
2023-10-31T19:26:33.462Z,10.50
2023-10-31T19:29:00.495Z,10.50
2023-10-31T19:31:27.530Z,10.50
2023-10-31T19:33:56.508Z,10.50
2023-10-31T19:36:24.191Z,10.50
2023-10-31T19:38:51.384Z,10.40
2023-10-31T19:41:18.710Z,10.40
2023-10-31T19:43:45.780Z,10.40
2023-10-31T19:46:12.708Z,10.40
2023-10-31T19:48:40.533Z,10.30
2023-10-31T19:51:11.118Z,10.30
2023-10-31T19:53:38.121Z,10.30
2023-10-31T19:56:05.763Z,10.30
2023-10-31T19:58:32.464Z,10.30
2023-10-31T20:00:59.810Z,10.30
2023-10-31T20:03:26.697Z,10.30
2023-10-31T20:05:53.883Z,10.20
2023-10-31T20:08:20.569Z,10.20
2023-10-31T20:10:47.330Z,10.20
2023-10-31T20:13:14.749Z,10.20
2023-10-31T20:15:43.036Z,10.20
2023-10-31T20:18:10.129Z,10.20
2023-10-31T20:20:36.992Z,10.10
2023-10-31T20:23:03.738Z,10.10
2023-10-31T20:25:30.411Z,10.10
2023-10-31T20:27:57.136Z,10.10
2023-10-31T20:30:23.821Z,10.10
2023-10-31T20:32:51.441Z,10.10
2023-10-31T20:35:18.597Z,10.00
2023-10-31T20:37:46.443Z,10.10
2023-10-31T20:40:14.512Z,10.00
2023-10-31T20:42:41.536Z,10.00
2023-10-31T20:45:08.554Z,10.00
2023-10-31T20:47:36.235Z,10.00
2023-10-31T20:50:06.289Z,10.00
2023-10-31T20:52:37.035Z,10.00
2023-10-31T20:55:05.190Z,9.90
2023-10-31T20:57:31.957Z,9.90
2023-10-31T20:59:58.813Z,9.90
2023-10-31T21:02:25.655Z,9.90
2023-10-31T21:04:52.832Z,9.90
2023-10-31T21:07:19.576Z,9.90
2023-10-31T21:09:46.748Z,9.80
2023-10-31T21:12:14.037Z,9.80
2023-10-31T21:14:40.981Z,9.80
2023-10-31T21:17:07.970Z,9.80
2023-10-31T21:19:36.947Z,9.80
2023-10-31T21:22:05.274Z,9.80
2023-10-31T21:24:32.150Z,9.80
2023-10-31T21:26:58.835Z,9.80
2023-10-31T21:29:25.840Z,9.80
2023-10-31T21:31:52.531Z,9.80
2023-10-31T21:34:19.389Z,9.80
2023-10-31T21:36:46.569Z,9.80
2023-10-31T21:39:14.692Z,9.80
2023-10-31T21:41:46.180Z,9.70
2023-10-31T21:44:13.120Z,9.70
2023-10-31T21:46:39.870Z,9.70
2023-10-31T21:49:06.676Z,9.80
2023-10-31T21:51:33.511Z,9.70
2023-10-31T21:54:00.281Z,9.60
2023-10-31T21:56:27.449Z,9.60
2023-10-31T21:58:54.203Z,9.70
2023-10-31T22:01:21.101Z,9.60
2023-10-31T22:03:48.099Z,9.70
2023-10-31T22:06:14.997Z,9.60
2023-10-31T22:08:41.829Z,9.60
2023-10-31T22:11:08.570Z,9.60
2023-10-31T22:13:35.318Z,9.60
2023-10-31T22:16:02.079Z,9.60
2023-10-31T22:18:29.402Z,9.70
2023-10-31T22:20:56.101Z,9.60
2023-10-31T22:23:22.956Z,9.60
2023-10-31T22:25:50.324Z,9.60
2023-10-31T22:28:17.055Z,9.70
2023-10-31T22:30:43.937Z,9.60
2023-10-31T22:33:10.762Z,9.70
2023-10-31T22:35:37.475Z,9.70
2023-10-31T22:38:04.992Z,9.70
2023-10-31T22:40:31.952Z,9.80
2023-10-31T22:42:59.158Z,9.80
2023-10-31T22:45:25.946Z,10.00
2023-10-31T22:47:52.802Z,9.80
2023-10-31T22:50:19.589Z,9.80
2023-10-31T22:52:46.290Z,9.80
2023-10-31T22:55:14.055Z,9.80
2023-10-31T22:57:41.287Z,9.80
2023-10-31T23:00:17.332Z,9.80
2023-10-31T23:02:44.175Z,9.80
2023-10-31T23:05:11.707Z,9.80
2023-10-31T23:07:38.568Z,9.80
2023-10-31T23:10:07.166Z,9.80
2023-10-31T23:12:34.179Z,9.80
2023-10-31T23:15:00.862Z,9.80
2023-10-31T23:17:27.963Z,9.80
2023-10-31T23:19:57.240Z,9.70
2023-10-31T23:22:24.911Z,9.70
2023-10-31T23:24:51.556Z,9.70
2023-10-31T23:27:18.234Z,9.70
2023-10-31T23:29:45.163Z,9.60
2023-10-31T23:32:11.857Z,9.60
2023-10-31T23:34:39.358Z,9.70
2023-10-31T23:37:07.273Z,9.60
2023-10-31T23:39:33.992Z,9.70
2023-10-31T23:42:00.850Z,9.80
2023-10-31T23:44:27.650Z,9.70
2023-10-31T23:46:54.791Z,9.70
2023-10-31T23:49:21.479Z,9.70
2023-10-31T23:51:48.132Z,9.70
2023-10-31T23:54:14.878Z,9.70
2023-10-31T23:56:41.601Z,9.80
2023-10-31T23:59:08.283Z,9.80
